EKKA/KRP METAR and TAF weather

Enter ICAO airport designator
Station Type Date Time Source
EKKA METAR 2020/09/18 16:20 UTC NOAA

EKKA 181620Z AUTO 28008KT 9999 NCD 15/08 Q1028


Station Type Date Time Source
EKKA Decoded METAR 2020/09/18 16:20 UTC NOAA

Karup, Denmark (EKKA) 56-18N 009-07E 53M
Sep 18, 2020 - 12:20 PM EDT / 2020.09.18 1620 UTC
Wind: from the W (280 degrees) at 9 MPH (8 KT):0
Visibility: greater than 7 mile(s):0
Temperature: 59 F (15 C)
Dew Point: 46 F (8 C)
Relative Humidity: 62%
Pressure (altimeter): 30.36 in. Hg (1028 hPa)
ob: EKKA 181620Z AUTO 28008KT 9999 NCD 15/08 Q1028
cycle: 16

Station Type Date Time Source
EKKA TAF 2020/09/18 15:30 UTC NOAA

TAF TAF EKKA 181425Z 1815/1915 28008KT 9999 FEW200
TEMPO 1822/1824 4000 MIFG BR
TEMPO 1900/1903 0500 BCFG BKN002
BECMG 1903/1905 VRB02KT 0100 FG VV001
TEMPO 1905/1909 2500 BR BKN003
BECMG 1909/1911 9999 NSW FEW020

Example: see airport list